Wednesday, March 04, 2015
02:50 UTC
  |  Log In   |  Register Free
Airport Search:

Independence Municipal Airport
(KIDP)

FAA data valid effective January 08, 2015 - March 05, 2015 (unless otherwise noted).

 
 
 
 
 
 
 
 
 
 
 
 
 
 

Current Aviation Weather for Independence Municipal Airport (KIDP)

The most recent METAR observation for KIDP was updated at: 0212
METAR Summary (Translated METAR)
KIDP
040155Z AUTO 00000KT 7SM -DZ SCT028 OVC090 05/03 A2987 RMK AO2
KCFV
040206Z AUTO 01009KT 9SM BKN020 OVC090 07/03 A2989 RMK AO2 T00670028
(10.6 nm SE from KIDP)
KPPF
040152Z AUTO 00000KT 8SM FEW026 SCT080 OVC095 06/04 A2989 RMK AO2 RAE43 SLP124 P0000 T00560039
(16.6 nm NE from KIDP)
TAF
No TAF information found within 50 nm of KIDP
  Airport Weather Conditions for KIDP

 Current Weather at IDP
43° F
Light Rain
North winds at 0.0 mph
IDP NOAA Radar

Pressure: 29.88 in
Humidity: 81%
Wind: Calm
Dew Point: 37.4°F
Visibility: 10.00 mi


Airport Weather Forecast for KIDP

Translated METAR and TAF for KIDP
Translated METAR for KIDP (0250 UTC 04 March 2015)
found at http://aviationweather.gov/adds/metars/
 
METAR text: KIDP 040235Z AUTO 00000KT 10SM -DZ SCT028 OVC090 05/03 A2988 RMK AO2
Conditions at: KIDP (INDEPENDENCE , KS, US) observed 0235 UTC 04 March 2015
Temperature: 5.0°C (41°F)
Dewpoint: 3.0°C (37°F) [RH = 87%]
Pressure (altimeter): 29.88 inches Hg (1011.9 mb)
Winds: calm
Visibility: 10 or more miles (16+ km)
Ceiling: 9000 feet AGL
Clouds: scattered clouds at 2800 feet AGL
overcast cloud deck at 9000 feet AGL
Weather: -DZ  (light drizzle)
Translated TAF for KIDP

There is no translated TAF available for this airport

Find All Airport Services Find A Hotel Find A Rental Car Find A Golf Course Find A Restaurant $100 Hamburger



FBO's on the Field
FBO Company Facility Photos Services Transportation Aviation Fuel Prices: Prices include tax
Catering Weather Repair Courtesy Rental Type 100LL JetA JetA+ MOGAS 8087
 
City of Independence

This FBO has not yet been rated
FS:Phillips 66
Last Updated: Feb-02
Login to update fuel prices
SS:
Contact City of IndependenceMore FBO Information
 
Add another FBO Facility Photos Catering Weather Repair Courtesy Rental Type 100LL JetA JetA+ MOGAS 8087
Services Transportation Aviation Fuel Prices: Prices include tax


model-print
model-print
model-print
model-print